Time;durP1;ratioP1;P1;durP2;ratioP2;P2;SDS_P1;SDS_P2;PMS_P1;PMS_P2;Temp;Humidity;BMP_temperature;BMP_pressure;BME280_temperature;BME280_humidity;BME280_pressure;Samples;Min_cycle;Max_cycle;Signal;HPM_P1;HPM_P2
2022/12/05 00:01:51;;;;;;;57.85;32.53;;;25.30;99.90;;;;;;5110214;28;20019;-63
2022/12/05 00:04:18;;;;;;;111.47;73.97;;;25.50;99.90;;;;;;5110090;28;20030;-69
2022/12/05 00:06:45;;;;;;;63.60;39.90;;;25.70;99.90;;;;;;5110276;28;20023;-72
2022/12/05 00:09:13;;;;;;;56.35;34.45;;;25.70;99.90;;;;;;5110241;28;20373;-74
2022/12/05 00:11:41;;;;;;;62.83;33.35;;;25.70;99.90;;;;;;5110060;28;20044;-69
2022/12/05 00:14:09;;;;;;;67.10;37.53;;;25.80;99.90;;;;;;5109959;28;20012;-71
2022/12/05 00:16:38;;;;;;;58.72;34.53;;;26.00;99.90;;;;;;5107156;28;20391;-73
2022/12/05 00:19:06;;;;;;;62.30;37.15;;;26.00;99.90;;;;;;5109984;28;20016;-70
2022/12/05 00:21:34;;;;;;;84.53;57.35;;;26.10;99.90;;;;;;5109881;28;20012;-71
2022/12/05 00:24:03;;;;;;;87.07;59.45;;;26.20;99.90;;;;;;5109924;28;20016;-69
2022/12/05 00:26:31;;;;;;;72.55;52.38;;;26.20;99.90;;;;;;5109713;28;20028;-73
2022/12/05 00:28:58;;;;;;;75.38;51.08;;;26.20;99.90;;;;;;5107156;28;20149;-72
2022/12/05 00:31:25;;;;;;;80.82;54.25;;;26.30;99.90;;;;;;5109674;28;20072;-72
2022/12/05 00:33:53;;;;;;;78.05;49.97;;;26.40;99.90;;;;;;5109427;28;20020;-72
2022/12/05 00:36:26;;;;;;;75.15;50.33;;;26.50;99.90;;;;;;5109386;28;20051;-70
2022/12/05 00:38:53;;;;;;;74.88;49.33;;;26.60;99.90;;;;;;5109297;28;20141;-70
2022/12/05 00:41:23;;;;;;;125.63;84.45;;;26.60;99.90;;;;;;5109398;28;20027;-71
2022/12/05 00:43:50;;;;;;;57.88;42.60;;;26.70;99.90;;;;;;5109534;28;20024;-72
2022/12/05 00:46:21;;;;;;;51.67;38.05;;;26.80;99.90;;;;;;5106601;28;20381;-71
2022/12/05 00:48:48;;;;;;;47.05;32.75;;;26.80;99.90;;;;;;5109424;28;20054;-72
2022/12/05 00:51:18;;;;;;;49.40;34.85;;;26.90;99.90;;;;;;5109288;28;20015;-71
2022/12/05 00:53:46;;;;;;;64.63;44.30;;;27.00;99.90;;;;;;5109203;28;20049;-73
2022/12/05 00:56:17;;;;;;;219.45;122.60;;;27.00;99.90;;;;;;5108965;28;20126;-72
2022/12/05 00:58:44;;;;;;;104.85;66.85;;;27.00;99.90;;;;;;5109338;28;20031;-69
2022/12/05 01:01:12;;;;;;;63.35;40.67;;;27.00;99.90;;;;;;5108876;28;20012;-71
2022/12/05 01:03:39;;;;;;;52.22;34.92;;;27.00;99.90;;;;;;5106675;28;20552;-71
2022/12/05 01:06:06;;;;;;;56.65;34.72;;;27.10;99.90;;;;;;5108032;28;20043;-73
2022/12/05 01:08:34;;;;;;;55.13;37.60;;;27.20;99.90;;;;;;5094804;28;20016;-71
2022/12/05 01:11:01;;;;;;;50.50;36.45;;;27.20;99.90;;;;;;5095195;28;20034;-71
2022/12/05 01:13:28;;;;;;;97.50;70.15;;;27.20;99.90;;;;;;5095214;28;20058;-71
2022/12/05 01:15:55;;;;;;;65.43;41.15;;;27.30;99.90;;;;;;5094939;28;20043;-72
2022/12/05 01:18:23;;;;;;;93.00;61.00;;;27.20;99.90;;;;;;5093966;28;20059;-72
2022/12/05 01:20:49;;;;;;;134.32;84.97;;;27.30;99.90;;;;;;5092436;28;20029;-72
2022/12/05 01:23:16;;;;;;;137.32;85.18;;;27.30;99.90;;;;;;5092533;28;20047;-72
2022/12/05 01:25:46;;;;;;;111.75;80.53;;;27.40;99.90;;;;;;5094722;28;20024;-72
2022/12/05 01:28:13;;;;;;;133.23;89.18;;;27.40;99.90;;;;;;5092399;28;20016;-72
2022/12/05 01:30:42;;;;;;;94.88;68.00;;;27.50;99.90;;;;;;5094749;28;20020;-72
2022/12/05 01:33:09;;;;;;;53.42;38.75;;;27.50;99.90;;;;;;5094715;28;20492;-72
2022/12/05 01:35:37;;;;;;;56.13;37.67;;;27.60;99.90;;;;;;5094601;28;20042;-71
2022/12/05 01:38:05;;;;;;;50.10;37.00;;;27.60;99.90;;;;;;5094530;28;20534;-73
2022/12/05 01:40:32;;;;;;;49.95;37.92;;;27.60;99.90;;;;;;5091830;28;20073;-72
2022/12/05 01:42:59;;;;;;;55.45;37.38;;;27.70;99.90;;;;;;5094553;28;20042;-72
2022/12/05 01:45:29;;;;;;;53.25;38.90;;;27.70;99.90;;;;;;5094263;28;20028;-72
2022/12/05 01:47:56;;;;;;;73.22;50.03;;;27.80;99.90;;;;;;5094398;28;20020;-71
2022/12/05 01:50:23;;;;;;;103.35;66.40;;;27.80;99.90;;;;;;5092387;28;20051;-72
2022/12/05 01:52:49;;;;;;;65.57;49.80;;;27.90;99.90;;;;;;5089817;28;20081;-72
2022/12/05 01:55:18;;;;;;;77.47;46.47;;;27.90;99.90;;;;;;5093995;28;20115;-73
2022/12/05 01:57:47;;;;;;;56.28;41.55;;;27.90;99.90;;;;;;5094593;28;20369;-72
2022/12/05 02:00:17;;;;;;;62.17;42.33;;;28.00;99.90;;;;;;5091763;28;20094;-72
2022/12/05 02:02:58;;;;;;;61.95;45.33;;;28.00;99.90;;;;;;5094121;28;20016;-72
2022/12/05 02:05:35;;;;;;;57.08;43.22;;;28.10;99.90;;;;;;5093118;28;20496;-73
2022/12/05 02:08:06;;;;;;;58.65;43.03;;;28.10;99.90;;;;;;5092765;28;20055;-73
2022/12/05 02:10:39;;;;;;;78.18;55.28;;;28.20;99.90;;;;;;5091873;28;20021;-72
2022/12/05 02:13:20;;;;;;;67.75;45.65;;;28.30;99.90;;;;;;5094902;28;20055;-74
2022/12/05 02:15:55;;;;;;;59.97;39.08;;;28.40;99.90;;;;;;5094864;28;20043;-73
2022/12/05 02:18:32;;;;;;;55.72;39.03;;;28.50;99.90;;;;;;5094098;28;20096;-72
2022/12/05 02:21:02;;;;;;;56.65;41.58;;;28.50;99.90;;;;;;5094787;28;20418;-72
2022/12/05 02:23:36;;;;;;;61.92;40.70;;;28.50;99.90;;;;;;5094803;28;20484;-74
2022/12/05 02:26:14;;;;;;;45.78;36.33;;;28.60;99.90;;;;;;5094769;28;20024;-73
2022/12/05 02:28:45;;;;;;;49.13;35.47;;;28.70;99.90;;;;;;5094750;28;20029;-73
2022/12/05 02:31:12;;;;;;;49.40;35.45;;;28.70;99.90;;;;;;5094727;28;20153;-73
2022/12/05 02:33:41;;;;;;;47.60;33.75;;;28.70;99.90;;;;;;5094492;28;20035;-72
2022/12/05 02:36:31;;;;;;;134.32;82.88;;;28.60;99.90;;;;;;5094496;28;20089;-73
2022/12/05 02:39:04;;;;;;;154.25;96.18;;;28.70;99.90;;;;;;5094267;28;20443;-74
2022/12/05 02:41:34;;;;;;;62.03;44.80;;;28.70;99.90;;;;;;5094487;28;20031;-73
2022/12/05 02:44:06;;;;;;;48.50;34.45;;;28.80;99.90;;;;;;5094538;28;20095;-74
2022/12/05 02:46:37;;;;;;;41.33;34.97;;;28.70;99.90;;;;;;5094497;28;20020;-73
2022/12/05 02:49:07;;;;;;;42.80;34.28;;;28.70;99.90;;;;;;5094442;28;20036;-65
2022/12/05 02:51:42;;;;;;;48.03;35.78;;;28.70;99.90;;;;;;5094243;28;20035;-66
2022/12/05 02:54:16;;;;;;;142.57;89.28;;;28.80;99.90;;;;;;5094383;28;20439;-66
2022/12/05 02:56:46;;;;;;;397.88;263.85;;;28.90;99.90;;;;;;5093946;28;20078;-66
2022/12/05 02:59:13;;;;;;;106.55;73.68;;;29.10;99.90;;;;;;5094342;28;20093;-66
2022/12/05 03:01:44;;;;;;;260.23;150.63;;;29.10;99.90;;;;;;5094201;28;20020;-66
2022/12/05 03:04:13;;;;;;;81.82;51.58;;;29.30;99.90;;;;;;5093950;28;20052;-66
2022/12/05 03:06:56;;;;;;;271.40;99.00;;;29.40;99.90;;;;;;5094026;28;20024;-67
2022/12/05 03:09:33;;;;;;;148.50;62.30;;;29.40;99.90;;;;;;5094056;28;20034;-67
2022/12/05 03:12:26;;;;;;;34.42;20.80;;;29.50;99.90;;;;;;5094115;28;20039;-67
2022/12/05 03:15:07;;;;;;;29.75;16.52;;;29.60;99.90;;;;;;5091950;28;20093;-67
2022/12/05 03:17:56;;;;;;;38.75;20.67;;;29.70;99.90;;;;;;5093909;28;20484;-67
2022/12/05 03:20:27;;;;;;;33.88;20.30;;;29.70;99.90;;;;;;5093697;28;20024;-67
2022/12/05 03:23:04;;;;;;;25.57;20.67;;;29.60;99.90;;;;;;5094003;28;20567;-67
2022/12/05 03:25:42;;;;;;;43.67;23.48;;;29.50;99.90;;;;;;5093858;28;20472;-67
2022/12/05 03:28:17;;;;;;;44.90;29.08;;;29.50;99.90;;;;;;5092831;28;20028;-67
2022/12/05 03:30:46;;;;;;;92.85;43.75;;;29.50;99.90;;;;;;5081080;28;20118;-67
2022/12/05 03:33:22;;;;;;;69.72;47.78;;;29.50;99.90;;;;;;5084791;28;20028;-67
2022/12/05 03:35:58;;;;;;;129.95;79.00;;;29.50;99.90;;;;;;5088530;28;20476;-68
2022/12/05 03:38:44;;;;;;;192.07;123.03;;;29.50;99.90;;;;;;5084630;28;20025;-67
2022/12/05 03:41:16;;;;;;;119.05;78.53;;;29.50;99.90;;;;;;5072343;28;20033;-68
2022/12/05 03:43:43;;;;;;;100.10;64.70;;;29.60;99.90;;;;;;5073373;28;20027;-68
2022/12/05 03:46:16;;;;;;;101.25;62.13;;;29.50;99.90;;;;;;5073172;28;20032;-67
2022/12/05 03:48:42;;;;;;;88.50;58.75;;;29.60;99.90;;;;;;5073289;28;20481;-66
2022/12/05 03:51:12;;;;;;;77.78;54.63;;;29.70;99.90;;;;;;5073383;28;20074;-67
2022/12/05 03:53:49;;;;;;;99.47;70.40;;;29.70;99.90;;;;;;5073137;28;20074;-67
2022/12/05 03:56:23;;;;;;;105.22;73.72;;;29.60;99.90;;;;;;5072993;28;20055;-68
2022/12/05 03:58:59;;;;;;;121.05;84.72;;;29.70;99.90;;;;;;5073150;28;20017;-68
2022/12/05 04:04:07;;;;;;;137.73;88.22;;;29.70;99.90;;;;;;5073196;28;20384;-67
2022/12/05 04:06:36;;;;;;;117.28;77.70;;;29.70;99.90;;;;;;5073249;28;20439;-67
2022/12/05 04:09:11;;;;;;;107.18;68.88;;;29.70;99.90;;;;;;5084158;28;20408;-68
2022/12/05 04:11:44;;;;;;;95.45;65.15;;;29.80;99.90;;;;;;5073013;28;20039;-65
2022/12/05 04:14:17;;;;;;;130.13;84.20;;;29.70;99.90;;;;;;5073146;28;20077;-65
2022/12/05 04:17:03;;;;;;;109.65;74.10;;;29.70;99.90;;;;;;5072674;28;20017;-73
2022/12/05 04:21:36;;;;;;;109.60;74.57;;;29.70;99.90;;;;;;5072701;28;20058;-72
2022/12/05 04:22:17;;;;;;;111.90;74.68;;;29.70;99.90;;;;;;5072704;28;20600;-74
2022/12/05 04:27:22;;;;;;;99.85;65.93;;;29.70;99.90;;;;;;5072909;28;20025;-70
2022/12/05 04:30:10;;;;;;;108.57;70.53;;;29.70;99.90;;;;;;5073041;28;20103;-72
2022/12/05 04:32:42;;;;;;;105.78;71.35;;;29.70;99.90;;;;;;5072283;28;20040;-75
2022/12/05 04:35:29;;;;;;;91.45;62.92;;;29.80;99.90;;;;;;5072783;28;20024;-72
2022/12/05 04:38:01;;;;;;;84.38;57.53;;;29.90;99.90;;;;;;5072666;28;20043;-74
2022/12/05 04:40:36;;;;;;;59.65;41.75;;;29.90;99.90;;;;;;5075136;28;20021;-76
2022/12/05 04:43:04;;;;;;;60.05;38.13;;;30.00;99.90;;;;;;5093068;28;20120;-70
2022/12/05 04:45:35;;;;;;;43.90;29.48;;;30.00;99.90;;;;;;5097087;28;20380;-73
2022/12/05 04:48:09;;;;;;;73.57;55.63;;;30.10;99.90;;;;;;5096855;28;20055;-73
2022/12/05 04:50:37;;;;;;;38.17;25.70;;;30.00;99.90;;;;;;5096665;28;20023;-71
2022/12/05 04:53:08;;;;;;;31.90;22.73;;;30.00;99.90;;;;;;5096732;28;20046;-73
2022/12/05 04:55:36;;;;;;;26.33;18.55;;;30.00;99.90;;;;;;5096398;28;20438;-72
2022/12/05 04:58:06;;;;;;;58.65;36.67;;;30.10;99.90;;;;;;5096480;28;20489;-74
2022/12/05 05:00:38;;;;;;;52.75;35.28;;;30.00;99.90;;;;;;5096527;28;20071;-72
2022/12/05 05:03:15;;;;;;;53.05;34.60;;;30.00;99.90;;;;;;5096386;28;20031;-73
2022/12/05 05:05:47;;;;;;;67.07;37.38;;;29.90;99.90;;;;;;5096461;28;20499;-73
2022/12/05 05:08:21;;;;;;;46.90;30.17;;;29.90;99.90;;;;;;5096359;28;20026;-72
2022/12/05 05:11:10;;;;;;;55.78;33.33;;;29.90;99.90;;;;;;5089665;28;20085;-72
2022/12/05 05:13:37;;;;;;;43.15;26.67;;;29.90;99.90;;;;;;5075493;28;20546;-73
2022/12/05 05:16:04;;;;;;;33.38;24.77;;;29.90;99.90;;;;;;5076151;28;20480;-71
2022/12/05 05:18:30;;;;;;;32.53;22.88;;;29.90;99.90;;;;;;5092220;28;20487;-70
2022/12/05 05:20:57;;;;;;;40.95;24.33;;;29.90;99.90;;;;;;5095828;28;20063;-67
2022/12/05 05:23:24;;;;;;;42.20;24.90;;;29.80;99.90;;;;;;5095675;28;20090;-68
2022/12/05 05:25:53;;;;;;;44.50;27.20;;;29.80;99.90;;;;;;5093137;28;20530;-70
2022/12/05 05:28:20;;;;;;;48.95;26.85;;;29.80;99.90;;;;;;5090841;28;20465;-70
2022/12/05 05:30:46;;;;;;;41.90;28.55;;;29.80;99.90;;;;;;5094662;28;20040;-70
2022/12/05 05:33:13;;;;;;;42.60;26.90;;;29.70;99.90;;;;;;5094718;28;20030;-70
2022/12/05 05:35:39;;;;;;;38.78;25.00;;;29.60;99.90;;;;;;5094003;28;20024;-69
2022/12/05 05:38:06;;;;;;;36.00;24.38;;;29.40;99.90;;;;;;5094620;28;20020;-70
2022/12/05 05:40:36;;;;;;;29.73;21.35;;;29.10;99.90;;;;;;5095069;28;20027;-67
2022/12/05 05:43:03;;;;;;;34.20;23.10;;;28.90;99.90;;;;;;5095470;28;20029;-67
2022/12/05 05:45:29;;;;;;;35.35;21.48;;;28.80;99.90;;;;;;5095527;28;20103;-66
2022/12/05 05:47:56;;;;;;;30.58;22.75;;;28.80;99.90;;;;;;5084014;28;20024;-67
2022/12/05 05:50:23;;;;;;;27.95;21.70;;;28.70;99.90;;;;;;5092490;28;20047;-68
2022/12/05 05:52:49;;;;;;;41.35;26.95;;;28.60;99.90;;;;;;5096698;28;20440;-68
2022/12/05 05:55:16;;;;;;;28.23;21.95;;;28.60;99.90;;;;;;5092734;28;20044;-67
2022/12/05 05:57:42;;;;;;;34.05;19.30;;;28.50;99.90;;;;;;5095281;28;20468;-66
2022/12/05 06:00:09;;;;;;;26.38;20.02;;;28.40;99.90;;;;;;5095363;28;20069;-66
2022/12/05 06:02:36;;;;;;;25.50;20.58;;;28.30;99.90;;;;;;5090477;28;20052;-67
2022/12/05 06:05:04;;;;;;;25.33;17.73;;;28.20;99.90;;;;;;5091223;28;20020;-68
2022/12/05 06:07:30;;;;;;;22.52;16.77;;;28.10;99.90;;;;;;5094818;28;20024;-67
2022/12/05 06:09:57;;;;;;;19.33;17.02;;;28.00;99.90;;;;;;5092258;28;20059;-67
2022/12/05 06:12:23;;;;;;;26.15;17.83;;;28.10;99.90;;;;;;5094756;28;20062;-66
2022/12/05 06:14:50;;;;;;;22.33;17.80;;;28.10;99.90;;;;;;5094486;28;20028;-67
2022/12/05 06:17:17;;;;;;;22.20;17.83;;;28.10;99.90;;;;;;5091883;28;20027;-67
2022/12/05 06:19:44;;;;;;;36.97;28.42;;;28.10;99.90;;;;;;5094939;28;20425;-66
2022/12/05 06:22:10;;;;;;;32.35;21.58;;;28.30;99.90;;;;;;5093882;28;20069;-66
2022/12/05 06:24:37;;;;;;;26.35;21.60;;;28.30;99.90;;;;;;5093553;28;20107;-66
2022/12/05 06:27:04;;;;;;;41.67;25.20;;;28.20;99.90;;;;;;5093656;28;20056;-66
2022/12/05 06:29:30;;;;;;;45.05;23.52;;;28.10;99.90;;;;;;5093369;28;20016;-69
2022/12/05 06:31:57;;;;;;;77.97;32.15;;;27.90;99.90;;;;;;5091711;28;20074;-69
2022/12/05 06:34:23;;;;;;;52.63;28.90;;;27.80;99.90;;;;;;5090879;28;20077;-67
2022/12/05 06:36:50;;;;;;;52.22;31.05;;;27.60;99.90;;;;;;5093423;28;20043;-71
2022/12/05 06:39:16;;;;;;;37.33;24.38;;;27.40;99.90;;;;;;5093464;28;20390;-68
2022/12/05 06:41:43;;;;;;;39.92;24.25;;;27.20;99.90;;;;;;5093438;28;20028;-69
2022/12/05 06:44:09;;;;;;;34.17;24.92;;;27.00;99.90;;;;;;5093125;28;20093;-68
2022/12/05 06:46:36;;;;;;;33.72;22.70;;;26.80;99.90;;;;;;5093349;28;20087;-68
2022/12/05 06:49:02;;;;;;;31.73;22.15;;;26.70;99.90;;;;;;5093307;28;20028;-68
2022/12/05 06:51:29;;;;;;;32.10;21.80;;;26.70;99.90;;;;;;5093071;28;20472;-67
2022/12/05 06:53:56;;;;;;;29.05;22.45;;;26.70;99.90;;;;;;5092961;28;20046;-67
2022/12/05 06:56:22;;;;;;;244.85;172.90;;;26.70;99.90;;;;;;5093017;28;20451;-69
2022/12/05 06:58:51;;;;;;;31.35;21.38;;;26.70;99.90;;;;;;5092943;28;20138;-69
2022/12/05 07:03:49;;;;;;;;;;;26.60;99.90;;;;;;5093696;28;20016;-67
2022/12/05 07:06:16;;;;;;;32.92;21.55;;;26.80;99.90;;;;;;5090175;28;19927;-68
2022/12/05 07:08:43;;;;;;;56.80;41.95;;;26.80;99.90;;;;;;5091141;28;20020;-68
2022/12/05 07:11:10;;;;;;;24.85;19.33;;;26.80;99.90;;;;;;5093838;28;20034;-67
2022/12/05 07:13:37;;;;;;;61.47;44.45;;;26.80;99.90;;;;;;5093064;28;20032;-68
2022/12/05 07:16:05;;;;;;;23.33;17.42;;;26.80;99.90;;;;;;5091306;28;20025;-67
2022/12/05 07:18:33;;;;;;;27.48;19.42;;;26.70;99.90;;;;;;5090007;28;20032;-67
2022/12/05 07:21:02;;;;;;;31.00;22.63;;;26.80;99.90;;;;;;5093195;28;20031;-67
2022/12/05 07:23:29;;;;;;;22.67;18.77;;;26.70;99.90;;;;;;5093130;28;20025;-68
2022/12/05 07:25:56;;;;;;;28.33;24.13;;;26.60;99.90;;;;;;5093254;28;20012;-68
2022/12/05 07:28:23;;;;;;;30.73;25.70;;;26.60;99.90;;;;;;5093129;28;20020;-68
2022/12/05 07:31:07;;;;;;;34.10;29.52;;;26.60;99.90;;;;;;5093297;28;20016;-69
2022/12/05 07:33:34;;;;;;;41.92;28.98;;;26.60;99.90;;;;;;5092529;28;20034;-69
2022/12/05 07:36:02;;;;;;;29.92;26.38;;;26.60;99.90;;;;;;5093235;28;20028;-69
2022/12/05 07:38:29;;;;;;;32.28;26.63;;;26.50;99.90;;;;;;5092953;28;20016;-68
2022/12/05 07:40:56;;;;;;;34.60;25.60;;;26.50;99.90;;;;;;5093005;28;20016;-67
2022/12/05 07:43:23;;;;;;;32.42;23.80;;;26.50;99.90;;;;;;5093163;28;20103;-68
2022/12/05 07:45:50;;;;;;;34.38;30.35;;;26.40;99.90;;;;;;5093053;28;20028;-68
2022/12/05 07:48:16;;;;;;;24.42;21.23;;;26.40;99.90;;;;;;5092975;28;20024;-67
2022/12/05 07:50:43;;;;;;;27.23;21.90;;;26.50;99.90;;;;;;5093019;28;20432;-67
2022/12/05 07:53:09;;;;;;;23.58;19.95;;;26.50;99.90;;;;;;5093262;28;20016;-68
2022/12/05 07:55:38;;;;;;;25.45;19.10;;;26.50;99.90;;;;;;5092839;28;20032;-70
2022/12/05 07:58:04;;;;;;;23.23;19.38;;;26.50;99.90;;;;;;5087344;28;20036;-68
2022/12/05 08:00:31;;;;;;;21.10;18.08;;;26.50;99.90;;;;;;5088957;28;20017;-67
2022/12/05 08:02:57;;;;;;;23.08;19.13;;;26.50;99.90;;;;;;5091419;28;20381;-67
2022/12/05 08:05:24;;;;;;;25.38;21.20;;;26.70;99.90;;;;;;5091093;28;20028;-68
2022/12/05 08:07:50;;;;;;;32.72;25.00;;;26.60;99.90;;;;;;5091060;28;20045;-68
2022/12/05 08:10:17;;;;;;;27.42;22.50;;;26.50;99.90;;;;;;5086635;28;20528;-67
2022/12/05 08:12:43;;;;;;;23.88;21.25;;;26.60;99.90;;;;;;5092600;28;20020;-68
2022/12/05 08:15:10;;;;;;;23.60;17.90;;;26.50;99.90;;;;;;5092328;28;20078;-67
2022/12/05 08:17:37;;;;;;;23.90;18.00;;;26.50;99.90;;;;;;5094800;28;20510;-67
2022/12/05 08:20:03;;;;;;;19.13;16.70;;;26.30;99.90;;;;;;5096593;28;20027;-67
2022/12/05 08:22:30;;;;;;;20.83;17.02;;;26.10;99.90;;;;;;5096838;28;20457;-67
2022/12/05 08:24:57;;;;;;;24.00;18.77;;;26.10;99.90;;;;;;5096526;28;20031;-67
2022/12/05 08:27:23;;;;;;;25.05;21.83;;;26.10;99.90;;;;;;5096173;28;20048;-67
2022/12/05 08:29:50;;;;;;;27.58;21.63;;;26.10;99.90;;;;;;5097018;28;20369;-68
2022/12/05 08:32:16;;;;;;;33.28;24.33;;;26.10;99.90;;;;;;5096743;28;20012;-68
2022/12/05 08:34:43;;;;;;;32.88;25.40;;;26.10;99.90;;;;;;5096514;28;20437;-69
2022/12/05 08:37:09;;;;;;;38.72;27.27;;;26.20;99.90;;;;;;5094327;28;20101;-68
2022/12/05 08:39:36;;;;;;;183.48;163.25;;;26.30;99.90;;;;;;5094056;28;20050;-69
2022/12/05 08:42:03;;;;;;;46.25;38.78;;;26.20;99.90;;;;;;5095939;28;20020;-68
2022/12/05 08:44:29;;;;;;;69.28;56.67;;;26.30;99.90;;;;;;5096494;28;20016;-67
2022/12/05 08:46:56;;;;;;;25.73;19.90;;;26.40;99.90;;;;;;5096470;28;20456;-66
2022/12/05 08:49:22;;;;;;;18.88;15.65;;;26.40;99.90;;;;;;5096198;28;20024;-66
2022/12/05 08:51:52;;;;;;;16.75;14.73;;;26.30;99.90;;;;;;5096326;28;20027;-67
2022/12/05 08:54:21;;;;;;;17.65;14.38;;;26.20;99.90;;;;;;5095150;28;20023;-67
2022/12/05 08:56:50;;;;;;;17.33;14.75;;;26.30;99.90;;;;;;5094396;28;20541;-68
2022/12/05 08:59:17;;;;;;;14.98;13.38;;;26.20;99.90;;;;;;5094745;28;20024;-67
2022/12/05 09:01:44;;;;;;;15.85;13.43;;;26.20;99.90;;;;;;5094911;28;20104;-68
2022/12/05 09:04:11;;;;;;;15.45;13.02;;;26.20;99.90;;;;;;5094755;28;20020;-68
2022/12/05 09:06:40;;;;;;;14.45;12.40;;;26.20;99.90;;;;;;5093126;28;20472;-68
2022/12/05 09:09:10;;;;;;;16.45;12.20;;;26.20;99.90;;;;;;5088910;28;20024;-67
2022/12/05 09:11:44;;;;;;;15.80;13.20;;;26.30;99.90;;;;;;5095873;28;20032;-65
2022/12/05 09:14:12;;;;;;;16.65;12.70;;;26.40;99.90;;;;;;5096462;28;20034;-66
2022/12/05 09:16:39;;;;;;;16.70;14.50;;;26.40;99.90;;;;;;5095927;28;20078;-65
2022/12/05 09:19:14;;;;;;;17.30;14.85;;;26.40;99.90;;;;;;5096183;28;20021;-66
2022/12/05 09:21:42;;;;;;;15.88;13.98;;;26.40;99.90;;;;;;5096305;28;20016;-67
2022/12/05 09:24:11;;;;;;;16.73;14.07;;;26.40;99.90;;;;;;5095566;28;20035;-67
2022/12/05 09:26:38;;;;;;;19.05;15.25;;;26.50;99.90;;;;;;5095938;28;20103;-67
2022/12/05 09:29:04;;;;;;;22.23;16.90;;;26.50;99.90;;;;;;5095491;28;20495;-66
2022/12/05 09:31:31;;;;;;;23.85;19.27;;;26.60;99.90;;;;;;5095690;28;20066;-66
2022/12/05 09:33:58;;;;;;;32.45;20.40;;;26.70;99.90;;;;;;5095922;28;20028;-67
2022/12/05 09:36:27;;;;;;;25.55;20.15;;;26.80;99.90;;;;;;5096006;28;20028;-67
2022/12/05 09:38:54;;;;;;;28.65;20.85;;;26.90;99.90;;;;;;5089535;28;20052;-68
2022/12/05 09:44:05;;;;;;;24.52;19.40;;;26.90;99.90;;;;;;5075475;28;20028;-67
2022/12/05 09:46:32;;;;;;;;;;;26.90;99.90;;;;;;5085575;28;20073;-67
2022/12/05 09:48:59;;;;;;;26.77;20.98;;;27.00;99.90;;;;;;5088998;28;19904;-68
2022/12/05 09:51:26;;;;;;;32.40;23.98;;;27.00;99.90;;;;;;5095380;28;20055;-67
2022/12/05 09:53:53;;;;;;;31.77;24.17;;;27.00;99.90;;;;;;5095403;28;20161;-68
2022/12/05 09:56:23;;;;;;;31.55;24.55;;;27.10;99.90;;;;;;5095302;28;20489;-69
2022/12/05 09:58:52;;;;;;;37.83;26.80;;;26.70;99.90;;;;;;5095277;28;20035;-68
2022/12/05 10:01:24;;;;;;;48.13;34.88;;;26.80;99.90;;;;;;5095293;28;20035;-67
2022/12/05 10:03:55;;;;;;;54.17;39.28;;;26.80;99.90;;;;;;5095615;28;20016;-67
2022/12/05 10:06:25;;;;;;;43.75;33.85;;;26.60;99.90;;;;;;5095206;28;20115;-67
2022/12/05 10:08:54;;;;;;;47.05;33.47;;;26.60;99.90;;;;;;5095139;28;20077;-67
2022/12/05 10:11:34;;;;;;;55.78;38.17;;;26.60;99.90;;;;;;5094748;28;20028;-67
2022/12/05 10:14:12;;;;;;;53.85;38.28;;;26.60;99.90;;;;;;5094962;28;20560;-67
2022/12/05 10:16:44;;;;;;;69.30;49.17;;;26.80;99.90;;;;;;5094662;28;20036;-67
2022/12/05 10:19:18;;;;;;;70.65;50.97;;;26.80;99.90;;;;;;5094932;28;20012;-68
2022/12/05 10:21:51;;;;;;;58.88;38.28;;;26.60;99.90;;;;;;5094881;28;20426;-68
2022/12/05 10:24:29;;;;;;;43.67;32.00;;;26.60;99.90;;;;;;5094671;28;20115;-71
2022/12/05 10:27:03;;;;;;;93.28;64.57;;;26.60;99.90;;;;;;5094436;28;20032;-70
2022/12/05 10:29:32;;;;;;;52.90;40.88;;;26.70;99.90;;;;;;5093421;28;20028;-73
2022/12/05 10:32:07;;;;;;;57.13;44.83;;;26.90;99.90;;;;;;5092355;28;20115;-67
2022/12/05 10:34:37;;;;;;;43.10;33.70;;;26.90;99.90;;;;;;5091997;28;20388;-69
2022/12/05 10:37:12;;;;;;;45.20;29.10;;;26.80;99.90;;;;;;5091281;28;20020;-69
2022/12/05 10:39:39;;;;;;;39.88;27.23;;;26.80;99.90;;;;;;5092608;28;20032;-68
2022/12/05 10:42:09;;;;;;;38.08;28.65;;;26.80;99.90;;;;;;5093175;28;20082;-69
2022/12/05 10:44:36;;;;;;;42.80;28.35;;;26.60;99.90;;;;;;5089937;28;20077;-69
2022/12/05 10:47:02;;;;;;;44.22;29.85;;;26.60;99.90;;;;;;5088867;28;20388;-70
2022/12/05 10:49:30;;;;;;;41.88;32.10;;;26.80;99.90;;;;;;5093137;28;20473;-70
2022/12/05 10:51:59;;;;;;;40.20;29.92;;;26.80;99.90;;;;;;5093206;28;20377;-69
2022/12/05 10:54:30;;;;;;;60.20;39.85;;;26.70;99.90;;;;;;5093108;28;20504;-67
2022/12/05 10:56:57;;;;;;;49.47;32.97;;;26.70;99.90;;;;;;5092009;28;20079;-69
2022/12/05 10:59:44;;;;;;;53.88;32.05;;;26.70;99.90;;;;;;5081797;28;20078;-70
2022/12/05 11:02:21;;;;;;;51.08;31.17;;;26.70;99.90;;;;;;5094379;28;20035;-69
2022/12/05 11:04:48;;;;;;;47.42;31.58;;;26.70;99.90;;;;;;5093403;28;20028;-68
2022/12/05 11:07:19;;;;;;;48.05;32.63;;;26.80;99.90;;;;;;5093281;28;20012;-69
2022/12/05 11:09:47;;;;;;;50.08;34.88;;;26.80;99.90;;;;;;5094242;28;20016;-69
2022/12/05 11:12:15;;;;;;;52.05;38.28;;;27.00;99.90;;;;;;5094320;28;20020;-70
2022/12/05 11:14:56;;;;;;;57.15;44.28;;;26.90;99.90;;;;;;5094029;28;20077;-70
2022/12/05 11:17:34;;;;;;;68.75;46.08;;;26.70;99.90;;;;;;5093266;28;20042;-71
2022/12/05 11:20:01;;;;;;;67.70;51.75;;;26.50;99.90;;;;;;5092447;28;20012;-70
2022/12/05 11:22:33;;;;;;;69.18;53.47;;;26.80;99.90;;;;;;5092869;28;20012;-70
2022/12/05 11:25:00;;;;;;;68.45;56.47;;;26.50;99.90;;;;;;5092994;28;20016;-70
2022/12/05 11:27:30;;;;;;;65.38;53.28;;;26.40;99.90;;;;;;5092466;28;20461;-70
2022/12/05 11:30:00;;;;;;;67.50;53.78;;;26.50;99.90;;;;;;5090241;28;20024;-69
2022/12/05 11:32:30;;;;;;;68.82;54.85;;;26.40;99.90;;;;;;5092378;28;20095;-69
2022/12/05 11:35:08;;;;;;;75.85;58.97;;;26.50;99.90;;;;;;5090881;28;20021;-67
2022/12/05 11:37:40;;;;;;;71.75;56.47;;;26.50;99.90;;;;;;5088984;28;20012;-71
2022/12/05 11:40:15;;;;;;;70.57;56.10;;;26.50;99.90;;;;;;5092533;28;20058;-70
2022/12/05 11:42:44;;;;;;;72.25;57.50;;;26.50;99.90;;;;;;5091160;28;20059;-69
2022/12/05 11:45:13;;;;;;;69.88;59.58;;;26.60;99.90;;;;;;5092324;28;20016;-69
2022/12/05 11:47:45;;;;;;;65.93;56.25;;;26.70;99.90;;;;;;5091166;28;20046;-70
2022/12/05 11:50:16;;;;;;;71.32;58.63;;;26.70;99.90;;;;;;5092196;28;20141;-70
2022/12/05 11:52:46;;;;;;;72.13;57.45;;;26.70;99.90;;;;;;5091072;28;20028;-70
2022/12/05 11:55:14;;;;;;;77.47;61.33;;;26.90;99.90;;;;;;5093194;28;20485;-69
2022/12/05 11:57:46;;;;;;;82.05;66.75;;;26.70;99.90;;;;;;5093367;28;20062;-69
2022/12/05 12:00:28;;;;;;;90.63;70.55;;;26.60;99.90;;;;;;5091521;28;20027;-69
2022/12/05 12:02:57;;;;;;;87.32;74.32;;;26.90;99.90;;;;;;5092987;28;20028;-70
2022/12/05 12:05:28;;;;;;;83.10;65.68;;;26.60;99.90;;;;;;5092589;28;20445;-70
2022/12/05 12:08:00;;;;;;;84.60;70.70;;;26.60;99.90;;;;;;5091629;22;20061;-71
2022/12/05 12:10:31;;;;;;;84.80;69.55;;;26.50;99.90;;;;;;5063116;28;20021;-70
2022/12/05 12:13:00;;;;;;;297.83;265.27;;;26.60;99.90;;;;;;5062950;28;20033;-71
2022/12/05 12:15:28;;;;;;;253.07;199.25;;;26.70;99.90;;;;;;5062745;28;20016;-69
2022/12/05 12:18:07;;;;;;;84.75;73.68;;;26.90;99.90;;;;;;5064168;28;20033;-70
2022/12/05 12:20:59;;;;;;;110.07;92.20;;;26.60;99.90;;;;;;5061803;28;20096;-70
2022/12/05 12:23:30;;;;;;;97.50;82.13;;;26.90;99.90;;;;;;5047400;28;20043;-68
2022/12/05 12:26:05;;;;;;;88.63;72.60;;;26.60;99.90;;;;;;5063412;28;20473;-68
2022/12/05 12:28:38;;;;;;;72.70;63.65;;;26.50;99.90;;;;;;5062145;28;20074;-70
2022/12/05 12:31:07;;;;;;;66.20;56.75;;;26.70;99.90;;;;;;5059643;28;20092;-69
2022/12/05 12:33:38;;;;;;;66.50;59.20;;;26.70;99.90;;;;;;5062592;28;20063;-69
2022/12/05 12:36:07;;;;;;;67.25;52.38;;;26.50;99.90;;;;;;5059215;28;20025;-68
2022/12/05 12:38:39;;;;;;;65.53;49.35;;;26.80;99.90;;;;;;5062685;28;20070;-70
2022/12/05 12:41:08;;;;;;;58.47;48.45;;;26.60;99.90;;;;;;5059272;28;20043;-70
2022/12/05 12:43:55;;;;;;;60.95;50.30;;;26.80;99.90;;;;;;5062474;28;20016;-72
2022/12/05 12:46:32;;;;;;;69.18;57.05;;;26.70;99.90;;;;;;5033431;28;20074;-70
2022/12/05 12:49:04;;;;;;;67.00;55.67;;;26.90;99.90;;;;;;5066372;28;20025;-69
2022/12/05 12:51:33;;;;;;;64.13;52.88;;;26.60;99.90;;;;;;5052769;28;20132;-69